createdAt,value
2022-12-22T00:01:44.827Z,88.20
2022-12-22T00:04:15.315Z,91.13
2022-12-22T00:06:42.298Z,84.00
2022-12-22T00:09:09.017Z,93.53
2022-12-22T00:11:35.870Z,112.18
2022-12-22T00:14:02.630Z,101.47
2022-12-22T00:16:34.214Z,104.28
2022-12-22T00:19:13.287Z,94.40
2022-12-22T00:21:40.328Z,102.68
2022-12-22T00:24:07.261Z,109.63
2022-12-22T00:26:35.801Z,105.28
2022-12-22T00:29:03.238Z,119.95
2022-12-22T00:31:31.381Z,127.65
2022-12-22T00:34:00.138Z,115.78
2022-12-22T00:36:29.452Z,106.00
2022-12-22T00:38:56.509Z,122.38
2022-12-22T00:41:23.438Z,106.47
2022-12-22T00:43:50.511Z,108.82
2022-12-22T00:46:18.497Z,112.20
2022-12-22T00:48:45.673Z,118.82
2022-12-22T00:51:12.725Z,113.57
2022-12-22T00:56:23.349Z,110.60
2022-12-22T00:58:52.165Z,116.95
2022-12-22T01:01:19.159Z,109.72
2022-12-22T01:03:46.229Z,119.50
2022-12-22T01:06:13.354Z,119.05
2022-12-22T01:08:41.898Z,119.78
2022-12-22T01:11:08.795Z,123.78
2022-12-22T01:13:35.714Z,116.10
2022-12-22T01:16:02.699Z,126.28
2022-12-22T01:18:29.625Z,125.40
2022-12-22T01:20:56.926Z,122.07
2022-12-22T01:23:23.636Z,146.77
2022-12-22T01:25:51.755Z,166.60
2022-12-22T01:28:18.540Z,154.27
2022-12-22T01:30:46.660Z,174.57
2022-12-22T01:33:13.836Z,142.77
2022-12-22T01:35:40.538Z,171.27
2022-12-22T01:38:07.248Z,160.23
2022-12-22T01:40:34.002Z,168.25
2022-12-22T01:43:02.393Z,156.93
2022-12-22T01:45:31.489Z,165.77
2022-12-22T01:47:58.427Z,160.73
2022-12-22T01:50:29.179Z,163.52
2022-12-22T01:52:56.999Z,145.20
2022-12-22T01:55:25.939Z,147.15
2022-12-22T01:57:53.125Z,158.23
2022-12-22T02:00:21.844Z,149.20
2022-12-22T02:02:51.419Z,157.23
2022-12-22T02:05:19.519Z,163.68
2022-12-22T02:07:56.572Z,144.65
2022-12-22T02:10:41.275Z,160.77
2022-12-22T02:13:21.366Z,158.45
2022-12-22T02:15:53.687Z,142.00
2022-12-22T02:18:25.826Z,146.00
2022-12-22T02:20:56.660Z,148.98
2022-12-22T02:23:46.927Z,143.77
2022-12-22T02:26:27.108Z,154.82
2022-12-22T02:28:54.303Z,159.30
2022-12-22T02:31:21.370Z,176.98
2022-12-22T02:33:48.436Z,160.70
2022-12-22T02:36:25.625Z,167.98
2022-12-22T02:39:05.205Z,168.60
2022-12-22T02:41:43.044Z,161.23
2022-12-22T02:44:26.003Z,181.98
2022-12-22T02:47:00.958Z,169.45
2022-12-22T02:49:35.332Z,182.63
2022-12-22T02:52:10.329Z,194.10
2022-12-22T02:54:37.117Z,216.90
2022-12-22T02:57:06.465Z,225.18
2022-12-22T02:59:33.191Z,222.40
2022-12-22T03:02:00.323Z,268.85
2022-12-22T03:04:27.232Z,224.50
2022-12-22T03:06:53.991Z,184.45
2022-12-22T03:09:20.661Z,182.38
2022-12-22T03:11:47.331Z,263.73
2022-12-22T03:14:15.451Z,270.58
2022-12-22T03:16:42.180Z,260.85
2022-12-22T03:19:09.003Z,224.23
2022-12-22T03:21:37.087Z,306.25
2022-12-22T03:24:04.012Z,290.15
2022-12-22T03:26:30.719Z,232.48
2022-12-22T03:28:57.423Z,216.73
2022-12-22T03:31:25.599Z,260.52
2022-12-22T03:33:52.287Z,335.88
2022-12-22T03:36:19.040Z,283.27
2022-12-22T03:38:45.724Z,312.75
2022-12-22T03:41:12.352Z,322.25
2022-12-22T03:43:39.097Z,265.38
2022-12-22T03:46:06.127Z,233.27
2022-12-22T03:48:35.580Z,268.65
2022-12-22T03:51:02.263Z,228.02
2022-12-22T03:53:28.912Z,269.65
2022-12-22T03:55:55.740Z,248.93
2022-12-22T03:58:22.551Z,300.45
2022-12-22T04:00:49.645Z,301.40
2022-12-22T04:03:16.598Z,224.77
2022-12-22T04:05:45.489Z,173.00
2022-12-22T04:08:13.220Z,210.75
2022-12-22T04:10:39.965Z,246.82
2022-12-22T04:13:06.805Z,250.27
2022-12-22T04:15:33.594Z,243.70
2022-12-22T04:18:00.645Z,206.43
2022-12-22T04:20:30.001Z,262.85
2022-12-22T04:22:58.387Z,214.63
2022-12-22T04:25:26.941Z,216.93
2022-12-22T04:27:53.786Z,164.60
2022-12-22T04:30:20.820Z,247.18
2022-12-22T04:32:47.560Z,226.30
2022-12-22T04:35:14.384Z,195.60
2022-12-22T04:37:43.787Z,231.80
2022-12-22T04:40:12.393Z,231.75
2022-12-22T04:42:39.166Z,224.93
2022-12-22T04:45:07.135Z,194.23
2022-12-22T04:47:33.914Z,183.35
2022-12-22T04:50:00.635Z,175.57
2022-12-22T04:52:27.305Z,229.15
2022-12-22T04:54:54.153Z,250.82
2022-12-22T04:57:22.335Z,189.82
2022-12-22T04:59:49.064Z,178.05
2022-12-22T05:02:16.336Z,157.75
2022-12-22T05:04:43.167Z,170.13
2022-12-22T05:07:10.043Z,151.85
2022-12-22T05:09:36.770Z,166.52
2022-12-22T05:12:03.926Z,227.27
2022-12-22T05:14:32.082Z,142.63
2022-12-22T05:16:59.252Z,149.55
2022-12-22T05:19:30.612Z,147.05
2022-12-22T05:21:57.866Z,190.95
2022-12-22T05:24:24.901Z,198.27
2022-12-22T05:26:51.765Z,161.77
2022-12-22T05:29:18.482Z,207.35
2022-12-22T05:31:47.501Z,208.75
2022-12-22T05:34:14.575Z,206.50
2022-12-22T05:36:41.574Z,188.20
2022-12-22T05:39:08.498Z,220.30
2022-12-22T05:41:35.360Z,155.45
2022-12-22T05:44:02.140Z,178.13
2022-12-22T05:46:28.952Z,185.40
2022-12-22T05:48:57.583Z,179.43
2022-12-22T05:51:24.558Z,217.50
2022-12-22T05:53:51.338Z,159.65
2022-12-22T05:56:18.169Z,203.90
2022-12-22T05:58:44.887Z,211.32
2022-12-22T06:01:11.838Z,256.38
2022-12-22T06:03:38.797Z,237.77
2022-12-22T06:06:07.661Z,180.80
2022-12-22T06:08:34.424Z,189.63
2022-12-22T06:11:01.296Z,218.73
2022-12-22T06:13:27.971Z,154.05
2022-12-22T06:15:54.876Z,198.13
2022-12-22T06:18:22.184Z,175.75
2022-12-22T06:20:51.595Z,211.85
2022-12-22T06:23:19.692Z,168.48
2022-12-22T06:25:54.235Z,184.43
2022-12-22T06:28:21.002Z,199.98
2022-12-22T06:30:48.472Z,262.60
2022-12-22T06:33:15.685Z,363.73
2022-12-22T06:35:44.200Z,232.90
2022-12-22T06:38:12.011Z,337.27
2022-12-22T06:40:40.114Z,205.82
2022-12-22T06:43:09.095Z,181.63
2022-12-22T06:45:37.530Z,132.65
2022-12-22T06:48:04.640Z,125.78
2022-12-22T06:50:32.073Z,255.90
2022-12-22T06:52:59.538Z,267.45
2022-12-22T06:55:26.437Z,202.15
2022-12-22T06:57:54.846Z,304.90
2022-12-22T07:00:22.299Z,163.65
2022-12-22T07:02:49.339Z,226.70
2022-12-22T07:05:16.497Z,420.90
2022-12-22T07:07:43.192Z,192.52
2022-12-22T07:10:10.673Z,370.00
2022-12-22T07:12:37.406Z,322.50
2022-12-22T07:15:06.837Z,231.95
2022-12-22T07:17:33.763Z,241.80
2022-12-22T07:20:00.813Z,258.23
2022-12-22T07:22:30.209Z,108.30
2022-12-22T07:24:57.883Z,248.52
2022-12-22T07:27:24.508Z,209.93
2022-12-22T07:29:51.223Z,210.75
2022-12-22T07:32:19.500Z,147.57
2022-12-22T07:34:46.319Z,197.65
2022-12-22T07:37:13.038Z,109.85
2022-12-22T07:39:39.770Z,138.15
2022-12-22T07:42:06.447Z,81.72
2022-12-22T07:44:33.170Z,111.28
2022-12-22T07:46:59.982Z,153.65
2022-12-22T07:49:30.034Z,259.40
2022-12-22T07:51:57.517Z,175.00
2022-12-22T07:54:25.284Z,220.60
2022-12-22T07:56:52.480Z,128.88
2022-12-22T07:59:19.371Z,240.20
2022-12-22T08:01:46.302Z,163.77
2022-12-22T08:04:14.313Z,111.00
2022-12-22T08:06:42.881Z,121.00
2022-12-22T08:09:13.053Z,120.03
2022-12-22T08:11:39.784Z,62.30
2022-12-22T08:14:06.524Z,149.00
2022-12-22T08:16:33.391Z,129.98
2022-12-22T08:19:00.253Z,176.52
2022-12-22T08:21:27.242Z,179.20
2022-12-22T08:23:55.897Z,90.15
2022-12-22T08:26:28.692Z,106.30
2022-12-22T08:29:01.774Z,107.70
2022-12-22T08:31:30.474Z,135.60
2022-12-22T08:33:59.809Z,141.20
2022-12-22T08:36:27.434Z,135.70
2022-12-22T08:38:56.337Z,90.57
2022-12-22T08:41:23.090Z,152.77
2022-12-22T08:43:50.091Z,148.75
2022-12-22T08:46:16.858Z,118.30
2022-12-22T08:48:43.718Z,122.38
2022-12-22T08:51:10.399Z,148.15
2022-12-22T08:54:03.944Z,87.40
2022-12-22T08:56:25.710Z,99.70
2022-12-22T08:58:52.513Z,68.07
2022-12-22T09:01:21.406Z,106.18
2022-12-22T09:03:49.416Z,91.53
2022-12-22T09:06:17.462Z,86.40
2022-12-22T09:08:44.337Z,62.92
2022-12-22T09:11:11.361Z,71.90
2022-12-22T09:13:41.685Z,86.45
2022-12-22T09:16:11.826Z,47.78
2022-12-22T09:18:39.678Z,71.22
2022-12-22T09:21:06.705Z,80.03
2022-12-22T09:23:34.284Z,64.82
2022-12-22T09:26:10.094Z,74.28
2022-12-22T09:28:40.098Z,111.55
2022-12-22T09:31:08.771Z,93.22
2022-12-22T09:33:36.547Z,111.88
2022-12-22T09:36:06.099Z,89.00
2022-12-22T09:38:32.912Z,67.30
2022-12-22T09:41:10.585Z,46.65
2022-12-22T09:43:38.971Z,83.53
2022-12-22T09:46:06.728Z,43.28
2022-12-22T09:49:36.199Z,37.63
2022-12-22T10:23:18.636Z,23.80
2022-12-22T10:28:53.811Z,18.50
2022-12-22T10:31:22.919Z,14.43
2022-12-22T10:33:52.157Z,16.25
2022-12-22T10:36:24.849Z,10.20
2022-12-22T10:39:02.155Z,17.42
2022-12-22T10:41:32.722Z,21.60
2022-12-22T10:44:06.945Z,17.30
2022-12-22T10:46:37.349Z,20.20
2022-12-22T10:49:15.359Z,13.95
2022-12-22T10:51:48.246Z,17.92
2022-12-22T10:54:36.844Z,19.30
2022-12-22T10:57:20.683Z,21.25
2022-12-22T10:59:52.532Z,16.80
2022-12-22T11:02:27.062Z,19.00
2022-12-22T11:04:55.233Z,22.00
2022-12-22T11:07:24.476Z,18.35
2022-12-22T11:10:09.002Z,15.55
2022-12-22T11:12:50.004Z,20.00
2022-12-22T11:15:29.491Z,19.42
2022-12-22T11:18:05.965Z,19.42
2022-12-22T11:20:48.928Z,15.68
2022-12-22T11:23:24.837Z,14.43
2022-12-22T11:26:04.249Z,24.92
2022-12-22T11:28:57.182Z,15.50
2022-12-22T11:31:54.276Z,15.75
2022-12-22T11:37:44.150Z,18.75
2022-12-22T11:40:28.308Z,16.13
2022-12-22T11:43:21.403Z,24.73
2022-12-22T11:46:00.822Z,22.05
2022-12-22T11:48:46.183Z,25.48
2022-12-22T11:51:25.499Z,23.60
2022-12-22T11:54:12.701Z,14.90
2022-12-22T11:56:42.961Z,19.48
2022-12-22T11:59:35.147Z,18.40
2022-12-22T12:02:34.199Z,25.98
2022-12-22T12:05:18.237Z,21.00
2022-12-22T12:07:48.803Z,22.38
2022-12-22T12:10:22.088Z,18.30
2022-12-22T12:12:59.685Z,14.50
2022-12-22T12:15:31.041Z,12.32
2022-12-22T12:21:02.640Z,9.45
2022-12-22T12:23:49.842Z,12.85
2022-12-22T12:26:20.035Z,13.20
2022-12-22T12:28:59.108Z,12.13
2022-12-22T12:31:32.817Z,17.63
2022-12-22T12:34:01.456Z,9.68
2022-12-22T12:36:39.107Z,12.00
2022-12-22T12:39:14.159Z,10.00
2022-12-22T12:41:51.168Z,16.20
2022-12-22T12:44:24.919Z,17.98
2022-12-22T12:47:23.743Z,11.82
2022-12-22T12:50:23.885Z,18.80
2022-12-22T12:53:14.806Z,16.50
2022-12-22T12:56:02.001Z,9.50
2022-12-22T12:58:48.023Z,12.35
2022-12-22T13:01:56.832Z,11.50
2022-12-22T13:05:09.573Z,12.60
2022-12-22T13:08:10.107Z,8.98
2022-12-22T13:10:42.703Z,18.90
2022-12-22T13:13:28.490Z,13.32
2022-12-22T13:16:31.154Z,10.93
2022-12-22T13:19:02.534Z,18.80
2022-12-22T13:21:54.638Z,10.82
2022-12-22T13:24:28.726Z,13.63
2022-12-22T13:27:03.589Z,12.30
2022-12-22T13:29:40.871Z,11.07
2022-12-22T13:32:22.368Z,12.38
2022-12-22T13:37:43.252Z,10.30
2022-12-22T13:40:13.719Z,6.53
2022-12-22T13:42:42.868Z,15.07
2022-12-22T13:45:18.027Z,18.35
2022-12-22T13:47:50.428Z,11.15
2022-12-22T13:50:19.638Z,8.93
2022-12-22T13:52:46.661Z,10.23
2022-12-22T13:55:16.065Z,8.93
2022-12-22T13:57:43.233Z,14.32
2022-12-22T14:00:19.300Z,12.95
2022-12-22T14:02:48.001Z,8.05
2022-12-22T14:05:15.177Z,15.40
2022-12-22T14:07:58.115Z,14.02
2022-12-22T14:10:32.167Z,15.40
2022-12-22T14:13:04.444Z,9.07
2022-12-22T14:15:31.375Z,11.82
2022-12-22T14:18:01.240Z,8.07
2022-12-22T14:20:32.820Z,19.83
2022-12-22T14:23:03.911Z,6.68
2022-12-22T14:25:34.358Z,8.98
2022-12-22T14:28:02.284Z,14.60
2022-12-22T14:30:38.218Z,13.00
2022-12-22T14:33:25.758Z,14.77
2022-12-22T14:36:05.298Z,8.77
2022-12-22T14:38:39.571Z,8.63
2022-12-22T14:41:11.235Z,9.15
2022-12-22T14:43:37.885Z,13.63
2022-12-22T14:46:07.913Z,5.93
2022-12-22T14:48:39.306Z,7.35
2022-12-22T14:51:06.969Z,15.10
2022-12-22T14:53:43.545Z,12.55
2022-12-22T14:56:12.425Z,6.85
2022-12-22T14:58:40.490Z,12.30
2022-12-22T15:01:20.043Z,10.80
2022-12-22T15:04:05.538Z,10.07
2022-12-22T15:06:38.787Z,12.73
2022-12-22T15:09:09.820Z,17.83
2022-12-22T15:11:39.477Z,15.75
2022-12-22T15:14:11.709Z,13.45
2022-12-22T15:16:38.569Z,10.15
2022-12-22T15:19:07.155Z,15.05
2022-12-22T15:21:34.880Z,11.55
2022-12-22T15:24:01.969Z,18.00
2022-12-22T15:26:31.817Z,16.75
2022-12-22T15:29:02.796Z,12.25
2022-12-22T15:31:29.675Z,13.98
2022-12-22T15:34:01.113Z,15.98
2022-12-22T15:38:56.284Z,15.00
2022-12-22T15:41:23.180Z,16.13
2022-12-22T15:43:58.652Z,18.50
2022-12-22T15:46:25.951Z,17.60
2022-12-22T15:48:53.123Z,13.45
2022-12-22T15:51:24.547Z,15.93
2022-12-22T15:56:22.723Z,20.02
2022-12-22T16:04:30.437Z,17.42
2022-12-22T16:06:59.024Z,16.05
2022-12-22T16:09:44.165Z,19.20
2022-12-22T16:12:17.327Z,15.68
2022-12-22T16:14:50.793Z,15.25
2022-12-22T16:17:54.894Z,17.60
2022-12-22T16:20:37.476Z,18.13
2022-12-22T16:23:37.594Z,17.98
2022-12-22T16:26:06.255Z,17.98
2022-12-22T16:29:18.271Z,23.17
2022-12-22T16:32:21.452Z,22.92
2022-12-22T16:40:54.903Z,29.17
2022-12-22T16:44:05.450Z,30.33
2022-12-22T16:47:34.922Z,30.83
2022-12-22T16:49:50.418Z,30.40
2022-12-22T16:52:42.770Z,28.80
2022-12-22T16:55:40.057Z,31.23
2022-12-22T16:59:01.246Z,41.58
2022-12-22T17:01:35.136Z,33.80
2022-12-22T17:04:05.650Z,39.55
2022-12-22T17:06:33.144Z,37.93
2022-12-22T17:09:04.963Z,39.97
2022-12-22T17:11:32.033Z,41.67
2022-12-22T17:14:05.776Z,45.15
2022-12-22T17:16:34.292Z,42.25
2022-12-22T17:19:01.078Z,47.30
2022-12-22T17:21:28.275Z,43.45
2022-12-22T17:23:58.583Z,46.78
2022-12-22T17:26:25.982Z,44.40
2022-12-22T17:28:53.475Z,49.20
2022-12-22T17:31:22.375Z,48.97
2022-12-22T17:33:51.155Z,57.92
2022-12-22T17:36:25.929Z,51.88
2022-12-22T17:38:53.710Z,52.53
2022-12-22T17:41:20.544Z,55.85
2022-12-22T17:43:47.419Z,62.53
2022-12-22T17:46:16.554Z,69.18
2022-12-22T17:48:45.489Z,64.22
2022-12-22T17:51:22.181Z,62.95
2022-12-22T17:53:49.271Z,60.08
2022-12-22T17:56:18.274Z,60.88
2022-12-22T17:58:45.371Z,68.13
2022-12-22T18:01:23.943Z,65.47
2022-12-22T18:03:51.227Z,67.85
2022-12-22T18:06:21.917Z,63.10
2022-12-22T18:08:49.516Z,60.72
2022-12-22T18:11:16.819Z,66.75
2022-12-22T18:13:43.674Z,66.90
2022-12-22T18:16:14.807Z,67.00
2022-12-22T18:18:42.721Z,74.68
2022-12-22T18:21:14.846Z,70.70
2022-12-22T18:23:49.865Z,66.38
2022-12-22T18:26:21.241Z,79.10
2022-12-22T18:28:48.848Z,75.35
2022-12-22T18:31:15.654Z,80.07
2022-12-22T18:33:42.622Z,75.30
2022-12-22T18:36:16.821Z,81.28
2022-12-22T18:38:46.441Z,70.20
2022-12-22T18:41:18.670Z,76.45
2022-12-22T18:43:45.700Z,77.45
2022-12-22T18:46:12.603Z,81.50
2022-12-22T18:48:39.448Z,67.65
2022-12-22T18:51:17.975Z,81.57
2022-12-22T18:53:46.443Z,79.18
2022-12-22T18:56:14.367Z,82.03
2022-12-22T18:58:41.722Z,75.10
2022-12-22T19:01:18.229Z,73.95
2022-12-22T19:03:44.950Z,75.15
2022-12-22T19:06:11.702Z,89.78
2022-12-22T19:08:45.135Z,71.57
2022-12-22T19:11:16.279Z,90.07
2022-12-22T19:13:45.209Z,70.60
2022-12-22T19:16:16.324Z,76.80
2022-12-22T19:18:44.217Z,77.60
2022-12-22T19:21:15.638Z,89.68
2022-12-22T19:26:20.303Z,71.05
2022-12-22T19:28:51.334Z,80.88
2022-12-22T19:31:24.720Z,83.93
2022-12-22T19:33:52.510Z,113.85
2022-12-22T19:36:21.891Z,113.40
2022-12-22T19:38:51.077Z,100.05
2022-12-22T19:41:30.142Z,93.60
2022-12-22T19:43:57.359Z,93.55
2022-12-22T19:46:25.974Z,81.35
2022-12-22T19:48:52.938Z,84.43
2022-12-22T19:51:19.864Z,87.30
2022-12-22T19:53:48.331Z,84.97
2022-12-22T19:56:22.689Z,86.90
2022-12-22T19:58:52.365Z,95.28
2022-12-22T20:01:19.577Z,86.38
2022-12-22T20:03:50.013Z,122.57
2022-12-22T20:06:17.090Z,70.17
2022-12-22T20:08:44.558Z,105.68
2022-12-22T20:11:14.345Z,97.60
2022-12-22T20:13:42.461Z,97.97
2022-12-22T20:16:13.126Z,89.65
2022-12-22T20:18:42.963Z,94.82
2022-12-22T20:21:13.495Z,93.68
2022-12-22T20:23:41.481Z,87.27
2022-12-22T20:26:13.890Z,85.45
2022-12-22T20:28:41.195Z,95.85
2022-12-22T20:31:09.067Z,100.38
2022-12-22T20:33:37.516Z,112.07
2022-12-22T20:36:16.293Z,105.00
2022-12-22T20:38:44.492Z,116.00
2022-12-22T20:41:11.665Z,102.90
2022-12-22T20:43:39.469Z,116.38
2022-12-22T20:46:14.052Z,101.55
2022-12-22T20:48:47.177Z,88.00
2022-12-22T20:51:18.659Z,97.75
2022-12-22T20:53:47.384Z,105.65
2022-12-22T20:56:20.717Z,108.90
2022-12-22T20:58:47.935Z,95.32
2022-12-22T21:01:15.443Z,105.15
2022-12-22T21:03:44.332Z,97.75
2022-12-22T21:06:23.906Z,98.47
2022-12-22T21:08:51.188Z,94.15
2022-12-22T21:11:17.870Z,132.30
2022-12-22T21:13:44.796Z,110.95
2022-12-22T21:16:14.616Z,84.32
2022-12-22T21:18:43.064Z,105.22
2022-12-22T21:21:10.804Z,117.18
2022-12-22T21:23:37.638Z,98.57
2022-12-22T21:26:05.957Z,144.40
2022-12-22T21:28:35.657Z,111.05
2022-12-22T21:31:05.375Z,115.95
2022-12-22T21:33:32.177Z,99.13
2022-12-22T21:36:01.836Z,118.53
2022-12-22T21:38:32.843Z,106.35
2022-12-22T21:40:59.602Z,115.15
2022-12-22T21:43:26.353Z,93.20
2022-12-22T21:45:53.166Z,108.57
2022-12-22T21:48:21.099Z,132.85
2022-12-22T21:50:48.889Z,194.27
2022-12-22T21:53:21.992Z,163.93
2022-12-22T21:55:49.915Z,142.65
2022-12-22T21:58:17.133Z,129.73
2022-12-22T22:00:47.589Z,114.65
2022-12-22T22:03:15.695Z,101.77
2022-12-22T22:05:56.328Z,103.47
2022-12-22T22:08:24.665Z,116.03
2022-12-22T22:10:51.640Z,151.10
2022-12-22T22:13:18.493Z,108.40
2022-12-22T22:15:45.243Z,189.15
2022-12-22T22:18:15.616Z,156.27
2022-12-22T22:20:42.743Z,105.05
2022-12-22T22:23:11.208Z,128.13
2022-12-22T22:25:39.579Z,97.20
2022-12-22T22:28:09.502Z,110.88
2022-12-22T22:30:40.701Z,96.00
2022-12-22T22:33:07.478Z,104.70
2022-12-22T22:35:34.400Z,107.68
2022-12-22T22:38:01.419Z,100.78
2022-12-22T22:40:28.227Z,101.63
2022-12-22T22:42:56.308Z,128.75
2022-12-22T22:45:23.525Z,114.10
2022-12-22T22:47:50.741Z,103.07
2022-12-22T22:50:17.859Z,132.80
2022-12-22T22:52:45.159Z,121.88
2022-12-22T22:55:12.718Z,112.55
2022-12-22T22:57:39.504Z,106.40
2022-12-22T23:00:10.968Z,111.43
2022-12-22T23:02:38.559Z,125.53
2022-12-22T23:05:06.773Z,116.50
2022-12-22T23:07:33.857Z,121.88
2022-12-22T23:10:00.794Z,103.32
2022-12-22T23:12:27.679Z,107.25
2022-12-22T23:14:54.459Z,108.15
2022-12-22T23:17:22.642Z,111.13
2022-12-22T23:19:49.675Z,120.63
2022-12-22T23:22:17.775Z,110.30
2022-12-22T23:24:44.647Z,112.60
2022-12-22T23:27:11.823Z,125.47
2022-12-22T23:29:38.789Z,98.95
2022-12-22T23:32:07.642Z,108.63
2022-12-22T23:41:57.837Z,111.22
2022-12-22T23:44:25.823Z,106.05
2022-12-22T23:46:53.128Z,110.63
2022-12-22T23:49:20.296Z,93.57
2022-12-22T23:51:47.277Z,95.50
2022-12-22T23:54:14.153Z,93.43
2022-12-22T23:56:41.008Z,108.57
2022-12-22T23:59:09.196Z,130.30
